sensor_id;sensor_type;location;lat;lon;timestamp;pressure;altitude;pressure_sealevel;temperature;humidity
41947;BME280;27638;42.184;24.848;2023-01-31T00:00:44;99379.31;;;4.54;68.87
41947;BME280;27638;42.184;24.848;2023-01-31T00:03:09;99370.09;;;4.59;69.15
41947;BME280;27638;42.184;24.848;2023-01-31T00:05:35;99386.19;;;4.45;69.38
41947;BME280;27638;42.184;24.848;2023-01-31T00:08:00;99388.38;;;4.40;69.21
41947;BME280;27638;42.184;24.848;2023-01-31T00:10:26;99379.59;;;4.51;69.14
41947;BME280;27638;42.184;24.848;2023-01-31T00:12:51;99387.91;;;4.25;69.80
41947;BME280;27638;42.184;24.848;2023-01-31T00:15:17;99379.06;;;4.26;69.74
41947;BME280;27638;42.184;24.848;2023-01-31T00:17:43;99379.84;;;4.17;70.35
41947;BME280;27638;42.184;24.848;2023-01-31T00:20:09;99378.00;;;3.87;71.16
41947;BME280;27638;42.184;24.848;2023-01-31T00:22:35;99374.81;;;3.83;71.71
41947;BME280;27638;42.184;24.848;2023-01-31T00:25:00;99369.91;;;3.69;72.15
41947;BME280;27638;42.184;24.848;2023-01-31T00:27:25;99376.28;;;3.76;72.78
41947;BME280;27638;42.184;24.848;2023-01-31T00:29:51;99374.19;;;3.70;73.24
41947;BME280;27638;42.184;24.848;2023-01-31T00:32:16;99371.69;;;3.69;73.13
41947;BME280;27638;42.184;24.848;2023-01-31T00:34:42;99370.19;;;3.34;74.27
41947;BME280;27638;42.184;24.848;2023-01-31T00:37:07;99355.72;;;3.72;73.15
41947;BME280;27638;42.184;24.848;2023-01-31T00:39:32;99355.59;;;3.73;72.42
41947;BME280;27638;42.184;24.848;2023-01-31T00:41:58;99361.34;;;3.67;72.72
41947;BME280;27638;42.184;24.848;2023-01-31T00:44:23;99351.25;;;3.83;72.37
41947;BME280;27638;42.184;24.848;2023-01-31T00:46:49;99355.44;;;3.96;71.87
41947;BME280;27638;42.184;24.848;2023-01-31T00:49:14;99363.13;;;3.88;71.57
41947;BME280;27638;42.184;24.848;2023-01-31T00:51:40;99360.00;;;3.73;72.16
41947;BME280;27638;42.184;24.848;2023-01-31T00:54:05;99362.47;;;3.95;71.74
41947;BME280;27638;42.184;24.848;2023-01-31T00:56:30;99371.34;;;4.04;71.56
41947;BME280;27638;42.184;24.848;2023-01-31T00:58:56;99359.72;;;4.18;71.30
41947;BME280;27638;42.184;24.848;2023-01-31T01:01:26;99362.97;;;4.31;69.60
41947;BME280;27638;42.184;24.848;2023-01-31T01:03:53;99361.59;;;4.36;68.27
41947;BME280;27638;42.184;24.848;2023-01-31T01:06:19;99365.19;;;4.35;67.67
41947;BME280;27638;42.184;24.848;2023-01-31T01:08:45;99359.09;;;4.35;67.67
41947;BME280;27638;42.184;24.848;2023-01-31T01:11:30;99356.94;;;4.40;67.35
41947;BME280;27638;42.184;24.848;2023-01-31T01:13:58;99365.31;;;4.34;67.88
41947;BME280;27638;42.184;24.848;2023-01-31T01:16:34;99364.22;;;4.36;67.84
41947;BME280;27638;42.184;24.848;2023-01-31T01:19:01;99360.94;;;4.44;67.72
41947;BME280;27638;42.184;24.848;2023-01-31T01:21:28;99370.06;;;4.49;67.50
41947;BME280;27638;42.184;24.848;2023-01-31T01:23:57;99365.34;;;4.43;67.16
41947;BME280;27638;42.184;24.848;2023-01-31T01:26:25;99368.09;;;4.42;67.34
41947;BME280;27638;42.184;24.848;2023-01-31T01:28:52;99368.81;;;4.44;67.01
41947;BME280;27638;42.184;24.848;2023-01-31T01:31:18;99364.06;;;4.28;67.88
41947;BME280;27638;42.184;24.848;2023-01-31T01:33:46;99371.25;;;4.36;67.17
41947;BME280;27638;42.184;24.848;2023-01-31T01:36:14;99367.97;;;4.43;67.23
41947;BME280;27638;42.184;24.848;2023-01-31T01:38:42;99355.69;;;4.44;67.30
41947;BME280;27638;42.184;24.848;2023-01-31T01:41:09;99359.00;;;4.46;66.93
41947;BME280;27638;42.184;24.848;2023-01-31T01:46:04;99358.31;;;4.44;66.37
41947;BME280;27638;42.184;24.848;2023-01-31T01:48:29;99357.41;;;4.64;66.91
41947;BME280;27638;42.184;24.848;2023-01-31T01:50:56;99353.84;;;4.65;66.44
41947;BME280;27638;42.184;24.848;2023-01-31T01:53:24;99359.47;;;4.61;66.43
41947;BME280;27638;42.184;24.848;2023-01-31T01:55:58;99360.44;;;4.60;66.96
41947;BME280;27638;42.184;24.848;2023-01-31T01:58:31;99347.06;;;4.63;67.45
41947;BME280;27638;42.184;24.848;2023-01-31T02:00:58;99346.38;;;4.70;67.27
41947;BME280;27638;42.184;24.848;2023-01-31T02:03:23;99344.88;;;4.68;67.68
41947;BME280;27638;42.184;24.848;2023-01-31T02:06:01;99351.53;;;4.81;67.81
41947;BME280;27638;42.184;24.848;2023-01-31T02:08:31;99331.75;;;4.68;68.50
41947;BME280;27638;42.184;24.848;2023-01-31T02:13:29;99341.59;;;4.85;69.32
41947;BME280;27638;42.184;24.848;2023-01-31T02:15:57;99334.00;;;4.92;69.09
41947;BME280;27638;42.184;24.848;2023-01-31T02:18:23;99338.84;;;5.06;68.72
41947;BME280;27638;42.184;24.848;2023-01-31T02:35:13;99311.78;;;5.15;69.27
41947;BME280;27638;42.184;24.848;2023-01-31T02:40:41;99313.16;;;5.19;68.78
41947;BME280;27638;42.184;24.848;2023-01-31T02:43:25;99307.22;;;5.17;68.62
41947;BME280;27638;42.184;24.848;2023-01-31T02:46:10;99301.97;;;5.17;69.13
41947;BME280;27638;42.184;24.848;2023-01-31T02:48:58;99285.25;;;5.18;68.58
41947;BME280;27638;42.184;24.848;2023-01-31T02:51:31;99293.44;;;5.25;68.56
41947;BME280;27638;42.184;24.848;2023-01-31T02:54:08;99290.94;;;5.33;68.36
41947;BME280;27638;42.184;24.848;2023-01-31T02:56:38;99296.47;;;5.30;68.37
41947;BME280;27638;42.184;24.848;2023-01-31T02:59:20;99288.47;;;5.22;68.19
41947;BME280;27638;42.184;24.848;2023-01-31T03:01:56;99290.38;;;5.10;67.25
41947;BME280;27638;42.184;24.848;2023-01-31T03:04:22;99297.00;;;5.14;68.00
41947;BME280;27638;42.184;24.848;2023-01-31T03:06:55;99291.63;;;5.16;67.27
41947;BME280;27638;42.184;24.848;2023-01-31T03:12:03;99290.38;;;5.20;66.58
41947;BME280;27638;42.184;24.848;2023-01-31T03:14:44;99290.69;;;5.26;65.80
41947;BME280;27638;42.184;24.848;2023-01-31T03:17:25;99284.88;;;5.32;66.00
41947;BME280;27638;42.184;24.848;2023-01-31T03:20:15;99280.31;;;5.34;65.09
41947;BME280;27638;42.184;24.848;2023-01-31T03:22:46;99281.97;;;5.35;64.72
41947;BME280;27638;42.184;24.848;2023-01-31T03:25:16;99277.53;;;5.36;64.83
41947;BME280;27638;42.184;24.848;2023-01-31T03:27:45;99264.84;;;5.31;64.43
41947;BME280;27638;42.184;24.848;2023-01-31T03:30:19;99251.84;;;5.10;62.23
41947;BME280;27638;42.184;24.848;2023-01-31T03:32:51;99264.81;;;5.12;62.68
41947;BME280;27638;42.184;24.848;2023-01-31T03:35:20;99261.09;;;5.14;62.47
41947;BME280;27638;42.184;24.848;2023-01-31T03:37:56;99271.03;;;5.11;61.30
41947;BME280;27638;42.184;24.848;2023-01-31T03:40:29;99272.97;;;5.09;59.73
41947;BME280;27638;42.184;24.848;2023-01-31T03:43:01;99269.25;;;5.11;59.03
41947;BME280;27638;42.184;24.848;2023-01-31T03:45:41;99278.09;;;5.01;59.07
41947;BME280;27638;42.184;24.848;2023-01-31T03:48:09;99281.41;;;5.03;59.63
41947;BME280;27638;42.184;24.848;2023-01-31T03:50:51;99287.75;;;5.00;59.74
41947;BME280;27638;42.184;24.848;2023-01-31T03:53:24;99292.72;;;4.94;59.11
41947;BME280;27638;42.184;24.848;2023-01-31T03:55:58;99296.16;;;4.94;58.66
41947;BME280;27638;42.184;24.848;2023-01-31T03:58:30;99293.97;;;4.90;58.53
41947;BME280;27638;42.184;24.848;2023-01-31T04:00:58;99302.78;;;4.89;58.08
41947;BME280;27638;42.184;24.848;2023-01-31T04:03:29;99301.69;;;4.81;58.06
41947;BME280;27638;42.184;24.848;2023-01-31T04:05:57;99304.16;;;4.83;58.48
41947;BME280;27638;42.184;24.848;2023-01-31T04:08:23;99296.31;;;4.83;58.21
41947;BME280;27638;42.184;24.848;2023-01-31T04:10:49;99287.19;;;4.77;58.31
41947;BME280;27638;42.184;24.848;2023-01-31T04:13:15;99287.03;;;4.69;58.31
41947;BME280;27638;42.184;24.848;2023-01-31T04:15:40;99302.91;;;4.68;58.91
41947;BME280;27638;42.184;24.848;2023-01-31T04:18:06;99303.88;;;4.67;59.21
41947;BME280;27638;42.184;24.848;2023-01-31T04:20:31;99318.91;;;4.65;59.23
41947;BME280;27638;42.184;24.848;2023-01-31T04:22:56;99318.22;;;4.63;59.45
41947;BME280;27638;42.184;24.848;2023-01-31T04:25:24;99315.31;;;4.66;60.00
41947;BME280;27638;42.184;24.848;2023-01-31T04:27:49;99329.25;;;4.66;59.63
41947;BME280;27638;42.184;24.848;2023-01-31T04:30:16;99327.19;;;4.60;59.92
41947;BME280;27638;42.184;24.848;2023-01-31T04:32:41;99328.16;;;4.59;60.29
41947;BME280;27638;42.184;24.848;2023-01-31T04:35:07;99334.09;;;4.61;60.82
41947;BME280;27638;42.184;24.848;2023-01-31T04:37:32;99324.69;;;4.59;60.99
41947;BME280;27638;42.184;24.848;2023-01-31T04:39:58;99335.59;;;4.54;61.31
41947;BME280;27638;42.184;24.848;2023-01-31T04:42:23;99329.34;;;4.45;61.56
41947;BME280;27638;42.184;24.848;2023-01-31T04:44:49;99333.50;;;4.48;61.74
41947;BME280;27638;42.184;24.848;2023-01-31T04:47:14;99335.41;;;4.46;61.94
41947;BME280;27638;42.184;24.848;2023-01-31T04:49:39;99332.38;;;4.41;61.82
41947;BME280;27638;42.184;24.848;2023-01-31T04:52:05;99335.28;;;4.47;62.01
41947;BME280;27638;42.184;24.848;2023-01-31T04:54:31;99342.59;;;4.44;62.41
41947;BME280;27638;42.184;24.848;2023-01-31T04:56:57;99352.50;;;4.40;63.11
41947;BME280;27638;42.184;24.848;2023-01-31T04:59:22;99349.75;;;4.42;63.19
41947;BME280;27638;42.184;24.848;2023-01-31T05:01:47;99348.75;;;4.33;62.93
41947;BME280;27638;42.184;24.848;2023-01-31T05:04:13;99353.44;;;4.30;63.41
41947;BME280;27638;42.184;24.848;2023-01-31T05:06:38;99343.13;;;4.38;63.39
41947;BME280;27638;42.184;24.848;2023-01-31T05:09:04;99343.78;;;4.30;63.83
41947;BME280;27638;42.184;24.848;2023-01-31T05:11:29;99361.16;;;4.31;63.87
41947;BME280;27638;42.184;24.848;2023-01-31T05:13:55;99355.50;;;4.26;64.73
41947;BME280;27638;42.184;24.848;2023-01-31T05:16:20;99365.13;;;4.26;64.74
41947;BME280;27638;42.184;24.848;2023-01-31T05:18:46;99363.88;;;4.20;65.31
41947;BME280;27638;42.184;24.848;2023-01-31T05:21:11;99364.75;;;4.09;65.98
41947;BME280;27638;42.184;24.848;2023-01-31T05:23:37;99373.56;;;4.08;66.15
41947;BME280;27638;42.184;24.848;2023-01-31T05:26:03;99369.88;;;4.11;66.57
41947;BME280;27638;42.184;24.848;2023-01-31T05:28:28;99364.63;;;4.11;66.38
41947;BME280;27638;42.184;24.848;2023-01-31T05:31:01;99374.28;;;4.10;66.67
41947;BME280;27638;42.184;24.848;2023-01-31T05:33:26;99380.34;;;4.11;66.00
41947;BME280;27638;42.184;24.848;2023-01-31T05:35:52;99376.19;;;4.08;66.05
41947;BME280;27638;42.184;24.848;2023-01-31T05:38:17;99373.00;;;4.05;66.63
41947;BME280;27638;42.184;24.848;2023-01-31T05:40:43;99374.09;;;4.02;66.77
41947;BME280;27638;42.184;24.848;2023-01-31T05:43:08;99373.56;;;4.08;66.63
41947;BME280;27638;42.184;24.848;2023-01-31T05:45:34;99369.75;;;4.12;66.43
41947;BME280;27638;42.184;24.848;2023-01-31T05:47:59;99375.50;;;4.06;66.56
41947;BME280;27638;42.184;24.848;2023-01-31T05:50:25;99387.50;;;4.09;66.43
41947;BME280;27638;42.184;24.848;2023-01-31T05:52:58;99370.19;;;3.97;67.13
41947;BME280;27638;42.184;24.848;2023-01-31T05:55:33;99387.63;;;4.07;67.04
41947;BME280;27638;42.184;24.848;2023-01-31T05:57:58;99385.16;;;4.06;67.02
41947;BME280;27638;42.184;24.848;2023-01-31T06:00:25;99394.78;;;4.05;67.03
41947;BME280;27638;42.184;24.848;2023-01-31T06:02:50;99395.94;;;4.12;67.09
41947;BME280;27638;42.184;24.848;2023-01-31T06:05:16;99405.59;;;4.12;66.68
41947;BME280;27638;42.184;24.848;2023-01-31T06:07:42;99408.22;;;4.12;66.62
41947;BME280;27638;42.184;24.848;2023-01-31T06:10:09;99407.59;;;3.99;66.62
41947;BME280;27638;42.184;24.848;2023-01-31T06:12:35;99420.34;;;4.13;66.72
41947;BME280;27638;42.184;24.848;2023-01-31T06:15:01;99415.94;;;4.13;66.97
41947;BME280;27638;42.184;24.848;2023-01-31T06:17:26;99415.47;;;4.20;66.99
41947;BME280;27638;42.184;24.848;2023-01-31T06:19:51;99413.28;;;4.25;66.93
41947;BME280;27638;42.184;24.848;2023-01-31T06:22:18;99435.34;;;4.22;66.91
41947;BME280;27638;42.184;24.848;2023-01-31T06:24:43;99423.44;;;4.18;67.02
41947;BME280;27638;42.184;24.848;2023-01-31T06:27:09;99415.19;;;4.23;66.73
41947;BME280;27638;42.184;24.848;2023-01-31T06:29:34;99411.53;;;4.14;66.91
41947;BME280;27638;42.184;24.848;2023-01-31T06:31:59;99417.94;;;4.21;67.06
41947;BME280;27638;42.184;24.848;2023-01-31T06:34:25;99428.44;;;4.21;67.63
41947;BME280;27638;42.184;24.848;2023-01-31T06:36:50;99430.66;;;4.26;66.92
41947;BME280;27638;42.184;24.848;2023-01-31T06:39:16;99421.84;;;4.27;67.26
41947;BME280;27638;42.184;24.848;2023-01-31T06:41:41;99432.38;;;4.36;67.57
41947;BME280;27638;42.184;24.848;2023-01-31T06:44:06;99432.94;;;4.40;68.14
41947;BME280;27638;42.184;24.848;2023-01-31T06:46:32;99442.50;;;4.51;67.74
41947;BME280;27638;42.184;24.848;2023-01-31T06:48:58;99445.31;;;4.59;67.68
41947;BME280;27638;42.184;24.848;2023-01-31T06:51:23;99447.53;;;4.63;67.79
41947;BME280;27638;42.184;24.848;2023-01-31T06:53:49;99447.09;;;4.58;67.33
41947;BME280;27638;42.184;24.848;2023-01-31T06:56:18;99446.97;;;4.60;68.04
41947;BME280;27638;42.184;24.848;2023-01-31T06:58:43;99444.09;;;4.63;67.83
41947;BME280;27638;42.184;24.848;2023-01-31T07:01:13;99451.88;;;4.74;67.72
41947;BME280;27638;42.184;24.848;2023-01-31T07:03:39;99454.34;;;4.75;67.90
41947;BME280;27638;42.184;24.848;2023-01-31T07:06:06;99448.97;;;4.77;67.67
41947;BME280;27638;42.184;24.848;2023-01-31T07:08:32;99441.94;;;4.77;67.19
41947;BME280;27638;42.184;24.848;2023-01-31T07:10:58;99454.91;;;4.79;67.69
41947;BME280;27638;42.184;24.848;2023-01-31T07:13:26;99461.28;;;4.86;67.27
41947;BME280;27638;42.184;24.848;2023-01-31T07:15:53;99458.53;;;4.88;67.41
41947;BME280;27638;42.184;24.848;2023-01-31T07:18:18;99462.66;;;4.80;67.67
41947;BME280;27638;42.184;24.848;2023-01-31T07:20:44;99476.06;;;4.87;67.93
41947;BME280;27638;42.184;24.848;2023-01-31T07:23:09;99469.31;;;4.85;67.82
41947;BME280;27638;42.184;24.848;2023-01-31T07:25:34;99474.41;;;4.86;68.16
41947;BME280;27638;42.184;24.848;2023-01-31T07:28:01;99497.06;;;4.87;67.79
41947;BME280;27638;42.184;24.848;2023-01-31T07:30:27;99493.75;;;4.85;67.98
41947;BME280;27638;42.184;24.848;2023-01-31T07:32:53;99490.19;;;4.96;68.11
41947;BME280;27638;42.184;24.848;2023-01-31T07:35:19;99503.88;;;4.99;68.32
41947;BME280;27638;42.184;24.848;2023-01-31T07:37:45;99496.16;;;5.07;67.53
41947;BME280;27638;42.184;24.848;2023-01-31T07:40:13;99495.50;;;5.15;68.14
41947;BME280;27638;42.184;24.848;2023-01-31T07:42:39;99496.88;;;5.09;67.96
41947;BME280;27638;42.184;24.848;2023-01-31T07:45:06;99495.97;;;5.20;68.53
41947;BME280;27638;42.184;24.848;2023-01-31T07:47:31;99497.50;;;5.23;68.03
41947;BME280;27638;42.184;24.848;2023-01-31T07:49:57;99504.84;;;5.29;67.58
41947;BME280;27638;42.184;24.848;2023-01-31T07:52:22;99494.91;;;5.32;67.36
41947;BME280;27638;42.184;24.848;2023-01-31T07:54:48;99493.09;;;5.33;67.94
41947;BME280;27638;42.184;24.848;2023-01-31T07:57:13;99495.03;;;5.40;67.92
41947;BME280;27638;42.184;24.848;2023-01-31T07:59:44;99489.94;;;5.39;67.17
41947;BME280;27638;42.184;24.848;2023-01-31T08:02:11;99485.91;;;5.35;66.92
41947;BME280;27638;42.184;24.848;2023-01-31T08:04:55;99504.03;;;5.48;66.36
41947;BME280;27638;42.184;24.848;2023-01-31T08:07:21;99510.00;;;5.50;66.76
41947;BME280;27638;42.184;24.848;2023-01-31T08:09:46;99500.16;;;5.42;65.47
41947;BME280;27638;42.184;24.848;2023-01-31T08:12:14;99499.19;;;5.43;65.64
41947;BME280;27638;42.184;24.848;2023-01-31T08:14:40;99499.91;;;5.45;65.32
41947;BME280;27638;42.184;24.848;2023-01-31T08:17:05;99510.13;;;5.48;65.50
41947;BME280;27638;42.184;24.848;2023-01-31T08:19:32;99510.28;;;5.56;65.50
41947;BME280;27638;42.184;24.848;2023-01-31T08:21:59;99512.22;;;5.54;65.42
41947;BME280;27638;42.184;24.848;2023-01-31T08:24:24;99518.72;;;5.60;65.26
41947;BME280;27638;42.184;24.848;2023-01-31T08:26:50;99520.38;;;5.61;65.68
41947;BME280;27638;42.184;24.848;2023-01-31T08:29:15;99506.44;;;5.70;65.36
41947;BME280;27638;42.184;24.848;2023-01-31T08:31:41;99514.03;;;5.73;63.99
41947;BME280;27638;42.184;24.848;2023-01-31T08:34:06;99512.94;;;5.75;64.22
41947;BME280;27638;42.184;24.848;2023-01-31T08:36:32;99512.09;;;5.75;64.36
41947;BME280;27638;42.184;24.848;2023-01-31T08:38:58;99530.91;;;5.80;64.77
41947;BME280;27638;42.184;24.848;2023-01-31T08:41:25;99523.84;;;5.81;64.16
41947;BME280;27638;42.184;24.848;2023-01-31T08:43:51;99527.88;;;5.85;64.04
41947;BME280;27638;42.184;24.848;2023-01-31T08:46:20;99522.34;;;5.88;64.06
41947;BME280;27638;42.184;24.848;2023-01-31T08:48:45;99521.97;;;5.92;64.27
41947;BME280;27638;42.184;24.848;2023-01-31T08:51:12;99521.97;;;5.92;64.41
41947;BME280;27638;42.184;24.848;2023-01-31T08:53:39;99524.59;;;6.02;64.17
41947;BME280;27638;42.184;24.848;2023-01-31T08:56:06;99523.63;;;6.03;64.60
41947;BME280;27638;42.184;24.848;2023-01-31T08:58:33;99531.50;;;6.03;63.93
41947;BME280;27638;42.184;24.848;2023-01-31T09:01:04;99540.91;;;6.05;64.23
41947;BME280;27638;42.184;24.848;2023-01-31T09:03:30;99547.28;;;6.13;64.32
41947;BME280;27638;42.184;24.848;2023-01-31T09:06:06;99553.91;;;6.17;63.95
41947;BME280;27638;42.184;24.848;2023-01-31T09:08:32;99545.22;;;6.26;64.01
41947;BME280;27638;42.184;24.848;2023-01-31T09:10:58;99545.22;;;6.35;63.95
41947;BME280;27638;42.184;24.848;2023-01-31T09:13:25;99540.34;;;6.21;64.69
41947;BME280;27638;42.184;24.848;2023-01-31T09:16:06;99551.31;;;6.26;63.34
41947;BME280;27638;42.184;24.848;2023-01-31T09:18:32;99546.75;;;6.28;63.79
41947;BME280;27638;42.184;24.848;2023-01-31T09:21:06;99536.38;;;6.36;63.96
41947;BME280;27638;42.184;24.848;2023-01-31T09:23:32;99535.91;;;6.60;62.98
41947;BME280;27638;42.184;24.848;2023-01-31T09:25:58;99529.34;;;6.84;63.82
41947;BME280;27638;42.184;24.848;2023-01-31T09:28:24;99532.19;;;7.00;62.77
41947;BME280;27638;42.184;24.848;2023-01-31T09:30:50;99538.06;;;7.21;63.39
41947;BME280;27638;42.184;24.848;2023-01-31T09:33:18;99531.06;;;7.40;59.72
41947;BME280;27638;42.184;24.848;2023-01-31T09:35:57;99555.13;;;7.54;60.38
41947;BME280;27638;42.184;24.848;2023-01-31T09:38:23;99534.31;;;7.51;58.54
41947;BME280;27638;42.184;24.848;2023-01-31T09:40:49;99540.19;;;7.45;58.71
41947;BME280;27638;42.184;24.848;2023-01-31T09:43:16;99533.97;;;7.64;58.37
41947;BME280;27638;42.184;24.848;2023-01-31T09:45:45;99537.66;;;7.71;59.21
41947;BME280;27638;42.184;24.848;2023-01-31T09:48:21;99525.38;;;7.62;58.36
41947;BME280;27638;42.184;24.848;2023-01-31T09:50:49;99526.44;;;7.69;59.39
41947;BME280;27638;42.184;24.848;2023-01-31T09:53:19;99519.38;;;7.69;58.61
41947;BME280;27638;42.184;24.848;2023-01-31T09:56:22;99529.03;;;7.79;58.44
41947;BME280;27638;42.184;24.848;2023-01-31T09:59:06;99515.69;;;7.98;58.28
41947;BME280;27638;42.184;24.848;2023-01-31T10:05:03;99502.97;;;7.93;56.99
41947;BME280;27638;42.184;24.848;2023-01-31T10:07:35;99496.88;;;7.93;56.78
41947;BME280;27638;42.184;24.848;2023-01-31T10:10:22;99486.53;;;7.99;56.15
41947;BME280;27638;42.184;24.848;2023-01-31T10:12:59;99488.19;;;8.00;56.42
41947;BME280;27638;42.184;24.848;2023-01-31T10:15:49;99493.84;;;7.88;54.47
41947;BME280;27638;42.184;24.848;2023-01-31T10:18:27;99500.31;;;7.93;54.08
41947;BME280;27638;42.184;24.848;2023-01-31T10:21:05;99485.78;;;8.07;54.73
41947;BME280;27638;42.184;24.848;2023-01-31T10:23:49;99473.84;;;8.21;55.00
41947;BME280;27638;42.184;24.848;2023-01-31T10:26:23;99480.13;;;8.20;54.59
41947;BME280;27638;42.184;24.848;2023-01-31T10:31:51;99468.81;;;8.10;52.96
41947;BME280;27638;42.184;24.848;2023-01-31T10:34:23;99469.28;;;8.05;53.32
41947;BME280;27638;42.184;24.848;2023-01-31T10:37:11;99465.28;;;8.01;52.66
41947;BME280;27638;42.184;24.848;2023-01-31T10:39:53;99460.50;;;8.22;54.10
41947;BME280;27638;42.184;24.848;2023-01-31T10:42:35;99458.72;;;8.41;53.65
41947;BME280;27638;42.184;24.848;2023-01-31T10:47:40;99449.66;;;8.69;52.05
41947;BME280;27638;42.184;24.848;2023-01-31T10:56:09;99439.84;;;8.87;51.35
41947;BME280;27638;42.184;24.848;2023-01-31T10:58:36;99429.03;;;9.07;53.85
41947;BME280;27638;42.184;24.848;2023-01-31T11:01:04;99436.50;;;9.19;51.97
41947;BME280;27638;42.184;24.848;2023-01-31T11:03:33;99428.06;;;9.16;51.27
41947;BME280;27638;42.184;24.848;2023-01-31T11:05:58;99439.06;;;9.03;50.18
41947;BME280;27638;42.184;24.848;2023-01-31T11:08:34;99440.66;;;8.88;51.15
41947;BME280;27638;42.184;24.848;2023-01-31T11:11:15;99437.94;;;8.72;52.23
41947;BME280;27638;42.184;24.848;2023-01-31T11:13:55;99428.03;;;8.40;53.44
41947;BME280;27638;42.184;24.848;2023-01-31T11:16:21;99436.41;;;8.17;53.64
41947;BME280;27638;42.184;24.848;2023-01-31T11:18:48;99441.06;;;8.23;54.51
41947;BME280;27638;42.184;24.848;2023-01-31T11:21:26;99439.72;;;8.19;53.88
41947;BME280;27638;42.184;24.848;2023-01-31T11:24:01;99441.31;;;8.12;54.22
41947;BME280;27638;42.184;24.848;2023-01-31T11:26:30;99435.59;;;8.17;54.08
41947;BME280;27638;42.184;24.848;2023-01-31T11:28:56;99436.25;;;8.19;53.69
41947;BME280;27638;42.184;24.848;2023-01-31T11:31:32;99431.22;;;8.08;54.34
41947;BME280;27638;42.184;24.848;2023-01-31T11:34:00;99436.50;;;8.08;54.84
41947;BME280;27638;42.184;24.848;2023-01-31T11:36:40;99442.41;;;8.01;54.99
41947;BME280;27638;42.184;24.848;2023-01-31T11:39:30;99427.72;;;7.81;56.86
41947;BME280;27638;42.184;24.848;2023-01-31T11:41:56;99437.28;;;8.00;56.25
41947;BME280;27638;42.184;24.848;2023-01-31T11:44:28;99438.78;;;8.02;55.80
41947;BME280;27638;42.184;24.848;2023-01-31T11:46:56;99439.91;;;8.00;56.19
41947;BME280;27638;42.184;24.848;2023-01-31T11:49:38;99440.75;;;7.83;57.90
41947;BME280;27638;42.184;24.848;2023-01-31T11:52:19;99446.34;;;7.80;55.69
41947;BME280;27638;42.184;24.848;2023-01-31T11:54:50;99449.72;;;7.72;55.67
41947;BME280;27638;42.184;24.848;2023-01-31T11:57:23;99457.41;;;7.83;54.99
41947;BME280;27638;42.184;24.848;2023-01-31T11:59:52;99451.75;;;7.96;54.59
41947;BME280;27638;42.184;24.848;2023-01-31T12:02:39;99451.97;;;7.85;54.49
41947;BME280;27638;42.184;24.848;2023-01-31T12:05:16;99462.22;;;7.88;54.06
41947;BME280;27638;42.184;24.848;2023-01-31T12:07:43;99458.81;;;7.95;53.80
41947;BME280;27638;42.184;24.848;2023-01-31T12:10:42;99466.72;;;7.95;54.94
41947;BME280;27638;42.184;24.848;2023-01-31T12:13:18;99459.16;;;8.18;55.25
41947;BME280;27638;42.184;24.848;2023-01-31T12:15:52;99456.06;;;8.23;54.57
41947;BME280;27638;42.184;24.848;2023-01-31T12:21:23;99453.81;;;8.46;55.96
41947;BME280;27638;42.184;24.848;2023-01-31T12:26:44;99456.13;;;8.49;55.68
41947;BME280;27638;42.184;24.848;2023-01-31T12:44:50;99457.94;;;8.30;54.36
41947;BME280;27638;42.184;24.848;2023-01-31T12:47:54;99453.38;;;8.32;55.82
41947;BME280;27638;42.184;24.848;2023-01-31T13:04:45;99469.63;;;8.28;56.85
41947;BME280;27638;42.184;24.848;2023-01-31T13:07:36;99467.13;;;8.26;57.60
41947;BME280;27638;42.184;24.848;2023-01-31T13:10:10;99464.34;;;8.28;57.64
41947;BME280;27638;42.184;24.848;2023-01-31T13:12:40;99461.50;;;8.21;58.19
41947;BME280;27638;42.184;24.848;2023-01-31T13:15:25;99467.97;;;8.27;58.87
41947;BME280;27638;42.184;24.848;2023-01-31T13:17:58;99471.25;;;8.39;59.30
41947;BME280;27638;42.184;24.848;2023-01-31T13:23:02;99476.09;;;8.51;59.24
41947;BME280;27638;42.184;24.848;2023-01-31T13:25:37;99470.22;;;8.57;59.02
41947;BME280;27638;42.184;24.848;2023-01-31T13:28:20;99475.06;;;8.70;58.96
41947;BME280;27638;42.184;24.848;2023-01-31T13:30:57;99483.44;;;8.66;57.29
41947;BME280;27638;42.184;24.848;2023-01-31T13:33:35;99476.75;;;8.79;56.67
41947;BME280;27638;42.184;24.848;2023-01-31T13:36:20;99485.16;;;8.75;55.63
41947;BME280;27638;42.184;24.848;2023-01-31T13:38:46;99482.38;;;8.32;54.92
41947;BME280;27638;42.184;24.848;2023-01-31T13:43:47;99493.88;;;8.31;56.84
41947;BME280;27638;42.184;24.848;2023-01-31T13:46:17;99487.75;;;8.41;57.55
41947;BME280;27638;42.184;24.848;2023-01-31T13:52:03;99476.38;;;8.40;58.59
41947;BME280;27638;42.184;24.848;2023-01-31T13:54:35;99477.31;;;8.21;58.68
41947;BME280;27638;42.184;24.848;2023-01-31T13:57:03;99475.19;;;8.25;58.85
41947;BME280;27638;42.184;24.848;2023-01-31T13:59:32;99478.81;;;8.24;58.87
41947;BME280;27638;42.184;24.848;2023-01-31T14:01:59;99477.16;;;8.23;59.41
41947;BME280;27638;42.184;24.848;2023-01-31T14:04:32;99480.25;;;8.18;58.89
41947;BME280;27638;42.184;24.848;2023-01-31T14:14:53;99483.59;;;8.02;60.35
41947;BME280;27638;42.184;24.848;2023-01-31T14:32:40;99508.91;;;7.95;62.65
41947;BME280;27638;42.184;24.848;2023-01-31T14:43:11;99524.25;;;7.64;62.03
41947;BME280;27638;42.184;24.848;2023-01-31T14:46:10;99529.22;;;7.67;62.40
41947;BME280;27638;42.184;24.848;2023-01-31T14:49:07;99536.53;;;7.74;62.57
41947;BME280;27638;42.184;24.848;2023-01-31T15:05:03;99557.25;;;7.68;63.65
41947;BME280;27638;42.184;24.848;2023-01-31T15:07:30;99563.94;;;7.63;64.12
41947;BME280;27638;42.184;24.848;2023-01-31T15:09:56;99557.41;;;7.67;64.28
41947;BME280;27638;42.184;24.848;2023-01-31T15:12:51;99561.22;;;7.55;64.36
41947;BME280;27638;42.184;24.848;2023-01-31T15:15:30;99560.72;;;7.42;65.03
41947;BME280;27638;42.184;24.848;2023-01-31T15:18:01;99563.28;;;7.24;65.69
41947;BME280;27638;42.184;24.848;2023-01-31T15:20:39;99575.75;;;7.22;66.29
41947;BME280;27638;42.184;24.848;2023-01-31T15:23:15;99575.78;;;7.12;66.28